Terminal Aerodrome Forecast
Issued by NWS Memphis, TN

Home | Current Version | Previous Version | Text Only | Print | Product List | Glossary On
Versions: 1 2 3 4 5 6 7 8 9 10 11 12 13 14 15 16 17 18 19
958
FTUS44 KMEG 282323
TAFMKL
TAF
KMKL 282323Z 2900/2924 35005KT P6SM FEW035
     FM291000 07004KT P6SM SCT025 OVC060
     FM291200 12005KT P6SM BKN015
     FM291600 14007KT P6SM SCT025 OVC050
     FM291900 15008KT P6SM BKN250=

USA.gov is the U.S. government's official web portal to all federal, state and local government web resources and services.